Time;durP1;ratioP1;P1;durP2;ratioP2;P2;SDS_P1;SDS_P2;PMS_P1;PMS_P2;Temp;Humidity;BMP_temperature;BMP_pressure;BME280_temperature;BME280_humidity;BME280_pressure;Samples;Min_cycle;Max_cycle;Signal;HPM_P1;HPM_P2
2024/01/20 00:00:45;;;;;;;27.00;14.50;;;-3.70;99.90;;;;;;5051330;28;20228;-59
2024/01/20 00:03:13;;;;;;;28.63;14.70;;;-3.80;99.90;;;;;;5051714;28;20205;-59
2024/01/20 00:05:41;;;;;;;29.20;14.73;;;-3.80;99.90;;;;;;5051390;28;20206;-59
2024/01/20 00:08:09;;;;;;;26.55;13.52;;;-3.80;99.90;;;;;;5051987;28;20224;-59
2024/01/20 00:10:37;;;;;;;23.73;12.20;;;-3.80;99.90;;;;;;5051299;28;20210;-58
2024/01/20 00:13:05;;;;;;;27.55;13.48;;;-3.90;99.90;;;;;;5051708;28;20221;-58
2024/01/20 00:15:36;;;;;;;26.73;13.50;;;-3.90;99.90;;;;;;5051294;28;20210;-58
2024/01/20 00:18:04;;;;;;;22.85;12.05;;;-3.90;99.90;;;;;;5051627;28;20202;-58
2024/01/20 00:20:32;;;;;;;26.33;13.10;;;-3.90;99.90;;;;;;5051039;28;20199;-59
2024/01/20 00:23:01;;;;;;;26.98;13.88;;;-4.00;99.90;;;;;;5051698;28;20209;-59
2024/01/20 00:25:29;;;;;;;22.98;13.50;;;-4.00;99.90;;;;;;5051062;28;20221;-59
2024/01/20 00:27:57;;;;;;;25.00;14.00;;;-4.00;99.90;;;;;;5051457;28;20313;-59
2024/01/20 00:30:25;;;;;;;29.90;14.48;;;-4.00;99.90;;;;;;5051342;28;20221;-58
2024/01/20 00:32:54;;;;;;;32.00;14.25;;;-4.00;99.90;;;;;;5050982;28;20230;-59
2024/01/20 00:35:23;;;;;;;25.75;13.82;;;-4.00;99.90;;;;;;5050619;28;20221;-58
2024/01/20 00:37:51;;;;;;;29.30;13.93;;;-4.10;99.90;;;;;;5050607;28;20668;-58
2024/01/20 00:40:19;;;;;;;28.40;13.75;;;-4.10;99.90;;;;;;5051147;28;20255;-59
2024/01/20 00:42:47;;;;;;;29.63;14.45;;;-4.10;99.90;;;;;;5051168;28;20667;-59
2024/01/20 00:45:15;;;;;;;26.48;13.13;;;-4.10;99.90;;;;;;5051142;28;20257;-58
2024/01/20 00:47:44;;;;;;;29.30;14.30;;;-4.10;99.90;;;;;;5051022;28;20225;-59
2024/01/20 00:50:13;;;;;;;28.05;14.18;;;-4.20;99.90;;;;;;5051046;28;20354;-58
2024/01/20 00:52:41;;;;;;;29.17;15.32;;;-4.20;99.90;;;;;;5050907;28;20691;-58
2024/01/20 00:55:08;;;;;;;28.35;14.90;;;-4.20;99.90;;;;;;5051185;28;20230;-59
2024/01/20 00:57:36;;;;;;;27.73;14.75;;;-4.20;99.90;;;;;;5050881;28;20202;-58
2024/01/20 01:00:08;;;;;;;30.83;14.85;;;-4.20;99.90;;;;;;5050780;28;20267;-58
2024/01/20 01:02:36;;;;;;;28.98;14.30;;;-4.20;99.90;;;;;;5050897;28;20252;-59
2024/01/20 01:05:05;;;;;;;33.85;14.63;;;-4.30;99.90;;;;;;5050960;28;20283;-59
2024/01/20 01:07:34;;;;;;;28.92;13.70;;;-4.30;99.90;;;;;;5051135;28;20201;-58
2024/01/20 01:10:03;;;;;;;34.47;16.30;;;-4.30;99.90;;;;;;5050919;28;20303;-58
2024/01/20 01:12:31;;;;;;;32.85;14.82;;;-4.30;99.90;;;;;;5050660;28;20222;-58
2024/01/20 01:14:59;;;;;;;35.03;15.48;;;-4.30;99.90;;;;;;5050741;28;20753;-59
2024/01/20 01:17:26;;;;;;;32.03;15.25;;;-4.30;99.90;;;;;;5050988;28;20289;-58
2024/01/20 01:19:54;;;;;;;27.27;14.02;;;-4.30;99.90;;;;;;5050951;28;20241;-59
2024/01/20 01:22:22;;;;;;;30.33;15.75;;;-4.30;99.90;;;;;;5050614;28;20202;-58
2024/01/20 01:24:52;;;;;;;28.48;14.73;;;-4.30;99.90;;;;;;5050706;28;20262;-59
2024/01/20 01:27:20;;;;;;;25.48;14.82;;;-4.30;99.90;;;;;;5042683;28;20285;-58
2024/01/20 01:29:48;;;;;;;26.48;14.02;;;-4.40;99.90;;;;;;5050955;28;20734;-58
2024/01/20 01:32:16;;;;;;;27.40;14.15;;;-4.40;99.90;;;;;;5050251;28;20228;-59
2024/01/20 01:34:44;;;;;;;30.25;14.77;;;-4.50;99.90;;;;;;5050761;28;20232;-59
2024/01/20 01:37:12;;;;;;;30.50;15.00;;;-4.50;99.90;;;;;;5051832;28;20210;-59
2024/01/20 01:39:42;;;;;;;28.95;14.15;;;-4.50;99.90;;;;;;5054379;28;20233;-58
2024/01/20 01:42:11;;;;;;;29.80;13.73;;;-4.50;99.90;;;;;;5054160;28;20198;-59
2024/01/20 01:44:39;;;;;;;30.05;14.32;;;-4.60;99.90;;;;;;5054177;28;20764;-58
2024/01/20 01:47:08;;;;;;;31.75;14.23;;;-4.60;99.90;;;;;;5054224;28;20237;-59
2024/01/20 01:49:36;;;;;;;28.35;13.32;;;-4.60;99.90;;;;;;5054352;28;20210;-58
2024/01/20 01:52:04;;;;;;;39.42;15.82;;;-4.60;99.90;;;;;;5053483;28;20217;-58
2024/01/20 01:54:32;;;;;;;31.30;14.77;;;-4.70;99.90;;;;;;5054267;28;20246;-58
2024/01/20 01:57:00;;;;;;;29.02;15.40;;;-4.70;99.90;;;;;;5053994;28;20237;-58
2024/01/20 01:59:30;;;;;;;31.65;15.15;;;-4.70;99.90;;;;;;5054217;28;20300;-59
2024/01/20 02:01:58;;;;;;;26.38;13.73;;;-4.70;99.90;;;;;;5053477;28;20251;-58
2024/01/20 02:04:26;;;;;;;29.45;15.25;;;-4.70;99.90;;;;;;5053946;28;20283;-58
2024/01/20 02:06:54;;;;;;;32.65;14.82;;;-4.70;99.90;;;;;;5053644;28;20256;-59
2024/01/20 02:09:22;;;;;;;28.17;13.55;;;-4.80;99.90;;;;;;5053846;28;20270;-58
2024/01/20 02:11:50;;;;;;;26.55;13.70;;;-4.80;99.90;;;;;;5053405;28;20236;-59
2024/01/20 02:14:18;;;;;;;30.90;14.57;;;-4.80;99.90;;;;;;5053616;28;20252;-58
2024/01/20 02:16:48;;;;;;;27.48;13.93;;;-4.90;99.90;;;;;;5053773;28;20275;-58
2024/01/20 02:19:16;;;;;;;29.33;13.82;;;-4.90;99.90;;;;;;5053467;28;20209;-58
2024/01/20 02:21:43;;;;;;;33.33;14.90;;;-4.90;99.90;;;;;;5053510;28;20229;-58
2024/01/20 02:24:13;;;;;;;29.67;15.57;;;-4.90;99.90;;;;;;5053651;28;20226;-58
2024/01/20 02:26:41;;;;;;;30.60;14.52;;;-4.90;99.90;;;;;;5053442;28;20206;-58
2024/01/20 02:29:09;;;;;;;28.73;14.05;;;-4.90;99.90;;;;;;5053462;28;20226;-59
2024/01/20 02:31:39;;;;;;;27.73;14.20;;;-4.90;99.90;;;;;;5050923;28;20679;-58
2024/01/20 02:34:06;;;;;;;29.17;13.88;;;-5.00;99.90;;;;;;5053302;28;20230;-59
2024/01/20 02:36:34;;;;;;;31.73;14.95;;;-5.00;99.90;;;;;;5053243;28;20251;-59
2024/01/20 02:39:02;;;;;;;27.65;14.23;;;-5.00;99.90;;;;;;5053076;28;20202;-58
2024/01/20 02:41:31;;;;;;;45.15;15.77;;;-5.00;99.90;;;;;;5053025;28;20212;-58
2024/01/20 02:43:59;;;;;;;29.55;14.77;;;-5.00;99.90;;;;;;5053268;28;20264;-58
2024/01/20 02:46:27;;;;;;;29.55;14.05;;;-5.00;99.90;;;;;;5052796;28;20738;-58
2024/01/20 02:48:55;;;;;;;28.17;14.02;;;-5.00;99.90;;;;;;5052780;28;20300;-59
2024/01/20 02:51:23;;;;;;;31.42;13.90;;;-5.00;99.90;;;;;;5052753;28;20202;-57
2024/01/20 02:53:51;;;;;;;27.42;13.90;;;-5.10;99.90;;;;;;5052592;28;20590;-58
2024/01/20 02:56:19;;;;;;;32.28;14.25;;;-5.10;99.90;;;;;;5052827;28;20283;-58
2024/01/20 02:58:48;;;;;;;25.85;14.07;;;-5.20;99.90;;;;;;5053092;28;20298;-58
2024/01/20 03:01:16;;;;;;;27.60;13.48;;;-5.20;99.90;;;;;;5052558;28;20301;-57
2024/01/20 03:03:45;;;;;;;28.70;14.50;;;-5.20;99.90;;;;;;5053404;28;20218;-59
2024/01/20 03:06:13;;;;;;;30.98;14.70;;;-5.20;99.90;;;;;;5052999;28;20536;-57
2024/01/20 03:08:41;;;;;;;31.15;14.35;;;-5.20;99.90;;;;;;5053510;28;20212;-58
2024/01/20 03:11:09;;;;;;;33.40;15.07;;;-5.30;99.90;;;;;;5052606;28;20679;-58
2024/01/20 03:13:37;;;;;;;30.50;14.43;;;-5.30;99.90;;;;;;5052825;28;20261;-57
2024/01/20 03:16:08;;;;;;;27.38;13.88;;;-5.30;99.90;;;;;;5053112;28;20624;-58
2024/01/20 03:18:37;;;;;;;22.92;12.90;;;-5.20;99.90;;;;;;5052658;28;20651;-58
2024/01/20 03:21:05;;;;;;;27.25;12.95;;;-5.30;99.90;;;;;;5052875;28;20210;-58
2024/01/20 03:23:33;;;;;;;26.88;12.98;;;-5.20;99.90;;;;;;5052855;28;20218;-58
2024/01/20 03:26:06;;;;;;;25.40;13.63;;;-5.20;99.90;;;;;;5052800;28;20238;-58
2024/01/20 03:28:34;;;;;;;33.50;14.05;;;-5.20;99.90;;;;;;5052697;28;20202;-58
2024/01/20 03:31:02;;;;;;;28.25;13.57;;;-5.10;99.90;;;;;;5052253;28;20210;-58
2024/01/20 03:33:31;;;;;;;26.73;13.40;;;-5.10;99.90;;;;;;5052765;28;20677;-57
2024/01/20 03:35:59;;;;;;;26.48;13.45;;;-5.00;99.90;;;;;;5052749;28;20210;-58
2024/01/20 03:38:27;;;;;;;31.15;14.82;;;-5.00;99.90;;;;;;5052153;28;20209;-58
2024/01/20 03:40:55;;;;;;;29.77;14.30;;;-5.00;99.90;;;;;;5052073;28;20260;-58
2024/01/20 03:43:23;;;;;;;33.97;14.95;;;-4.90;99.90;;;;;;5051914;28;20205;-58
2024/01/20 03:45:53;;;;;;;26.83;13.30;;;-4.90;99.90;;;;;;5051889;28;20237;-58
2024/01/20 03:48:21;;;;;;;32.20;14.75;;;-4.80;99.90;;;;;;5051804;28;20241;-58
2024/01/20 03:50:50;;;;;;;42.97;16.30;;;-4.80;99.90;;;;;;5051880;28;20209;-58
2024/01/20 03:53:18;;;;;;;32.42;14.85;;;-4.70;99.90;;;;;;5051593;28;20234;-58
2024/01/20 03:55:46;;;;;;;37.97;16.00;;;-4.70;99.90;;;;;;5051928;28;20238;-58
2024/01/20 03:58:14;;;;;;;31.50;14.80;;;-4.70;99.90;;;;;;5051500;28;20285;-58
2024/01/20 04:00:43;;;;;;;30.63;13.55;;;-4.60;99.90;;;;;;5050782;28;20233;-58
2024/01/20 04:03:11;;;;;;;31.85;15.38;;;-4.60;99.90;;;;;;5051598;28;20209;-58
2024/01/20 04:05:40;;;;;;;36.55;17.58;;;-4.60;99.90;;;;;;5051720;28;20564;-58
2024/01/20 04:08:09;;;;;;;41.33;17.58;;;-4.50;99.90;;;;;;5051623;28;20201;-58
2024/01/20 04:10:37;;;;;;;42.72;18.58;;;-4.50;99.90;;;;;;5050737;28;20256;-58
2024/01/20 04:13:05;;;;;;;47.85;18.27;;;-4.60;99.90;;;;;;5050726;28;20279;-58
2024/01/20 04:15:32;;;;;;;44.58;18.48;;;-4.60;99.90;;;;;;5053370;28;20661;-58
2024/01/20 04:18:00;;;;;;;43.88;18.92;;;-4.60;99.90;;;;;;5059398;28;20206;-58
2024/01/20 04:20:28;;;;;;;44.05;17.20;;;-4.70;99.90;;;;;;5059180;28;20293;-58
2024/01/20 04:22:56;;;;;;;58.55;17.75;;;-4.70;99.90;;;;;;5051027;28;20212;-58
2024/01/20 04:25:25;;;;;;;45.22;17.48;;;-4.70;99.90;;;;;;5050967;28;20362;-58
2024/01/20 04:27:53;;;;;;;45.45;18.63;;;-4.70;99.90;;;;;;5051425;28;20245;-58
2024/01/20 04:30:21;;;;;;;48.78;18.10;;;-4.70;99.90;;;;;;5051171;28;20233;-58
2024/01/20 04:32:50;;;;;;;44.00;18.48;;;-4.70;99.90;;;;;;5051164;28;20205;-58
2024/01/20 04:35:18;;;;;;;44.92;18.00;;;-4.60;99.90;;;;;;5051186;28;20260;-58
2024/01/20 04:37:46;;;;;;;43.20;17.40;;;-4.60;99.90;;;;;;5051054;28;20264;-58
2024/01/20 04:40:14;;;;;;;40.13;17.70;;;-4.60;99.90;;;;;;5051105;28;20321;-58
2024/01/20 04:42:43;;;;;;;37.90;16.75;;;-4.60;99.90;;;;;;5051204;28;20234;-58
2024/01/20 04:45:13;;;;;;;41.38;16.25;;;-4.60;99.90;;;;;;5051115;28;20313;-58
2024/01/20 04:47:41;;;;;;;34.03;16.63;;;-4.60;99.90;;;;;;5051054;28;20209;-58
2024/01/20 04:50:09;;;;;;;35.78;15.95;;;-4.60;99.90;;;;;;5050856;28;20202;-57
2024/01/20 04:52:37;;;;;;;35.47;15.77;;;-4.60;99.90;;;;;;5050876;28;20293;-58
2024/01/20 04:55:05;;;;;;;36.35;15.38;;;-4.60;99.90;;;;;;5051089;28;20245;-57
2024/01/20 04:57:33;;;;;;;32.33;15.57;;;-4.60;99.90;;;;;;5043129;28;20299;-57
2024/01/20 05:00:03;;;;;;;37.03;14.88;;;-4.50;99.90;;;;;;5051326;28;20293;-58
2024/01/20 05:02:31;;;;;;;31.42;14.25;;;-4.60;99.90;;;;;;5050827;28;20694;-57
2024/01/20 05:04:59;;;;;;;26.23;13.60;;;-4.60;99.90;;;;;;5050994;28;20265;-58
2024/01/20 05:07:26;;;;;;;24.88;13.38;;;-4.60;99.90;;;;;;5050770;28;20648;-58
2024/01/20 05:09:54;;;;;;;28.85;14.50;;;-4.60;99.90;;;;;;5051236;28;20405;-58
2024/01/20 05:12:22;;;;;;;29.88;13.93;;;-4.50;99.90;;;;;;5053764;28;20300;-59
2024/01/20 05:14:50;;;;;;;30.23;14.65;;;-4.50;99.90;;;;;;5051569;22;20590;-55
2024/01/20 05:17:19;;;;;;;27.90;13.20;;;-4.50;99.90;;;;;;5038569;28;20213;-55
2024/01/20 05:19:47;;;;;;;30.33;14.40;;;-4.50;99.90;;;;;;5052207;28;20213;-53
2024/01/20 05:22:17;;;;;;;29.90;13.82;;;-4.50;99.90;;;;;;5034358;28;20844;-53
2024/01/20 05:24:46;;;;;;;29.67;13.25;;;-4.50;99.90;;;;;;5034629;28;20250;-56
2024/01/20 05:27:14;;;;;;;26.52;12.60;;;-4.50;99.90;;;;;;5034485;28;20273;-54
2024/01/20 05:29:42;;;;;;;27.75;13.57;;;-4.60;99.90;;;;;;5034813;28;20198;-56
2024/01/20 05:32:10;;;;;;;29.85;14.50;;;-4.60;99.90;;;;;;5034035;28;20691;-56
2024/01/20 05:34:39;;;;;;;34.30;15.55;;;-4.60;99.90;;;;;;5034592;28;20226;-54
2024/01/20 05:37:07;;;;;;;31.30;14.93;;;-4.70;99.90;;;;;;5029927;28;20210;-53
2024/01/20 05:39:35;;;;;;;32.08;15.20;;;-4.70;99.90;;;;;;5030539;28;20633;-53
2024/01/20 05:42:03;;;;;;;36.70;15.25;;;-4.70;99.90;;;;;;5037144;28;20238;-53
2024/01/20 05:44:31;;;;;;;32.75;14.88;;;-4.70;99.90;;;;;;5033231;28;20218;-54
2024/01/20 05:46:59;;;;;;;28.65;13.90;;;-4.70;99.90;;;;;;5040807;28;20234;-55
2024/01/20 05:49:27;;;;;;;29.17;13.25;;;-4.70;99.90;;;;;;5039981;28;20289;-53
2024/01/20 05:51:56;;;;;;;30.30;13.10;;;-4.70;99.90;;;;;;5048549;28;20206;-53
2024/01/20 05:54:24;;;;;;;31.38;13.70;;;-4.70;99.90;;;;;;5043674;28;20266;-53
2024/01/20 05:56:52;;;;;;;24.48;13.07;;;-4.80;99.90;;;;;;5034020;28;20211;-54
2024/01/20 05:59:20;;;;;;;26.38;12.32;;;-4.80;99.90;;;;;;5033946;28;20214;-53
2024/01/20 06:01:50;;;;;;;35.25;15.95;;;-4.70;99.90;;;;;;5033708;28;20666;-53
2024/01/20 06:04:18;;;;;;;29.00;13.52;;;-4.80;99.90;;;;;;5029517;28;20227;-56
2024/01/20 06:06:46;;;;;;;32.28;13.27;;;-4.80;99.90;;;;;;5028413;28;20220;-55
2024/01/20 06:09:15;;;;;;;29.20;12.50;;;-4.80;99.90;;;;;;5045040;28;20249;-53
2024/01/20 06:11:43;;;;;;;31.30;13.35;;;-4.70;99.90;;;;;;5033815;28;20194;-54
2024/01/20 06:14:11;;;;;;;34.90;13.70;;;-4.70;99.90;;;;;;5033365;28;20317;-54
2024/01/20 06:16:41;;;;;;;30.00;15.35;;;-4.70;99.90;;;;;;5032901;28;20256;-54
2024/01/20 06:19:09;;;;;;;28.40;12.55;;;-4.70;99.90;;;;;;5033869;28;20285;-53
2024/01/20 06:21:37;;;;;;;28.50;12.77;;;-4.70;99.90;;;;;;5033503;28;20198;-53
2024/01/20 06:24:05;;;;;;;32.38;13.75;;;-4.70;99.90;;;;;;5032804;28;20226;-54
2024/01/20 06:26:35;;;;;;;31.17;13.70;;;-4.70;99.90;;;;;;5033456;28;20691;-56
2024/01/20 06:29:02;;;;;;;32.35;13.65;;;-4.70;99.90;;;;;;5033771;28;20309;-54
2024/01/20 06:31:30;;;;;;;31.98;13.45;;;-4.80;99.90;;;;;;5033092;28;20230;-59
2024/01/20 06:33:58;;;;;;;31.15;13.50;;;-4.70;99.90;;;;;;5033526;28;20695;-53
2024/01/20 06:36:26;;;;;;;27.73;13.50;;;-4.80;99.90;;;;;;5033288;28;20206;-54
2024/01/20 06:38:54;;;;;;;27.33;12.95;;;-4.70;99.90;;;;;;5033168;28;20221;-53
2024/01/20 06:41:22;;;;;;;33.63;14.77;;;-4.70;99.90;;;;;;5033260;28;20238;-53
2024/01/20 06:43:51;;;;;;;35.70;14.82;;;-4.70;99.90;;;;;;5032930;28;20235;-55
2024/01/20 06:46:19;;;;;;;37.47;15.43;;;-4.70;99.90;;;;;;5033250;28;20238;-53
2024/01/20 06:48:47;;;;;;;37.53;15.13;;;-4.60;99.90;;;;;;5032938;28;20286;-53
2024/01/20 06:51:15;;;;;;;35.85;15.63;;;-4.70;99.90;;;;;;5032697;28;20213;-53
2024/01/20 06:53:44;;;;;;;36.20;14.93;;;-4.70;99.90;;;;;;5032587;28;20206;-53
2024/01/20 06:56:12;;;;;;;39.20;16.05;;;-4.70;99.90;;;;;;5033134;28;20226;-53
2024/01/20 06:58:40;;;;;;;41.45;16.88;;;-4.60;99.90;;;;;;5032955;28;20289;-53
2024/01/20 07:01:09;;;;;;;34.28;15.10;;;-4.70;99.90;;;;;;5032751;28;20675;-55
2024/01/20 07:03:37;;;;;;;36.15;16.00;;;-4.60;99.90;;;;;;5032610;28;20238;-55
2024/01/20 07:06:07;;;;;;;35.55;16.05;;;-4.60;99.90;;;;;;5033085;28;20230;-55
2024/01/20 07:08:35;;;;;;;35.38;15.55;;;-4.60;99.90;;;;;;5032815;28;20229;-55
2024/01/20 07:11:03;;;;;;;37.28;14.93;;;-4.60;99.90;;;;;;5032705;28;20245;-56
2024/01/20 07:13:31;;;;;;;38.03;15.32;;;-4.60;99.90;;;;;;5032614;28;20215;-53
2024/01/20 07:15:59;;;;;;;33.00;15.25;;;-4.50;99.90;;;;;;5032383;28;20686;-56
2024/01/20 07:18:28;;;;;;;38.10;15.18;;;-4.50;99.90;;;;;;5032377;28;20210;-56
2024/01/20 07:20:56;;;;;;;38.55;16.20;;;-4.50;99.90;;;;;;5032618;28;20211;-55
2024/01/20 07:23:24;;;;;;;41.88;15.90;;;-4.50;99.90;;;;;;5032281;28;20211;-54
2024/01/20 07:25:52;;;;;;;35.53;16.38;;;-4.50;99.90;;;;;;5032398;28;20318;-56
2024/01/20 07:28:20;;;;;;;37.08;16.17;;;-4.50;99.90;;;;;;5031747;28;20238;-54
2024/01/20 07:30:48;;;;;;;45.70;15.82;;;-4.50;99.90;;;;;;5031658;28;20656;-55
2024/01/20 07:33:16;;;;;;;39.97;16.17;;;-4.50;99.90;;;;;;5032090;28;20256;-55
2024/01/20 07:35:45;;;;;;;38.10;15.93;;;-4.50;99.90;;;;;;5031152;28;20282;-54
2024/01/20 07:38:13;;;;;;;35.15;15.77;;;-4.50;99.90;;;;;;5032179;28;20206;-54
2024/01/20 07:40:41;;;;;;;39.88;15.70;;;-4.40;99.90;;;;;;5031868;28;20674;-55
2024/01/20 07:43:09;;;;;;;38.55;16.27;;;-4.40;99.90;;;;;;5031985;28;20676;-58
2024/01/20 07:45:39;;;;;;;40.33;15.27;;;-4.40;99.90;;;;;;5031943;28;20250;-56
2024/01/20 07:48:07;;;;;;;40.38;14.90;;;-4.40;99.90;;;;;;5031878;28;20211;-54
2024/01/20 07:50:35;;;;;;;36.17;16.25;;;-4.40;99.90;;;;;;5031782;28;20654;-55
2024/01/20 07:53:05;;;;;;;35.38;14.40;;;-4.30;99.90;;;;;;5031951;28;20210;-56
2024/01/20 07:55:33;;;;;;;30.75;13.85;;;-4.40;99.90;;;;;;5031736;28;20659;-55
2024/01/20 07:58:01;;;;;;;37.03;15.80;;;-4.30;99.90;;;;;;5031720;28;20301;-54
2024/01/20 08:00:29;;;;;;;34.05;14.57;;;-4.30;99.90;;;;;;5031864;28;20238;-54
2024/01/20 08:02:56;;;;;;;35.08;15.27;;;-4.30;99.90;;;;;;5031871;28;20245;-56
2024/01/20 08:05:24;;;;;;;39.30;15.23;;;-4.30;99.90;;;;;;5031812;28;20225;-55
2024/01/20 08:07:52;;;;;;;39.88;15.82;;;-4.30;99.90;;;;;;5031648;28;20726;-54
2024/01/20 08:10:21;;;;;;;40.53;16.25;;;-4.30;99.90;;;;;;5031321;28;20260;-54
2024/01/20 08:12:51;;;;;;;43.28;16.10;;;-4.20;99.90;;;;;;5031664;28;20237;-54
2024/01/20 08:15:19;;;;;;;38.45;16.58;;;-4.20;99.90;;;;;;5031337;28;20276;-55
2024/01/20 08:17:47;;;;;;;39.90;16.10;;;-4.20;99.90;;;;;;5031651;28;20253;-55
2024/01/20 08:20:15;;;;;;;44.53;17.33;;;-4.20;99.90;;;;;;5031546;28;20214;-54
2024/01/20 08:22:42;;;;;;;41.40;17.13;;;-4.10;99.90;;;;;;5031400;28;20281;-55
2024/01/20 08:25:10;;;;;;;37.08;15.40;;;-4.10;99.90;;;;;;5031352;28;20276;-54
2024/01/20 08:27:40;;;;;;;36.08;16.17;;;-4.10;99.90;;;;;;5031492;28;20297;-56
2024/01/20 08:30:08;;;;;;;43.15;17.02;;;-4.10;99.90;;;;;;5031420;28;20225;-55
2024/01/20 08:32:37;;;;;;;46.90;16.55;;;-4.00;99.90;;;;;;5031321;28;20206;-55
2024/01/20 08:35:05;;;;;;;40.88;18.42;;;-4.00;99.90;;;;;;5031396;28;20264;-54
2024/01/20 08:37:33;;;;;;;39.00;17.70;;;-4.00;99.90;;;;;;5031175;28;20256;-54
2024/01/20 08:40:02;;;;;;;46.22;17.63;;;-3.90;99.90;;;;;;5031626;28;20238;-54
2024/01/20 08:42:30;;;;;;;42.50;18.08;;;-3.90;99.90;;;;;;5031079;28;20691;-54
2024/01/20 08:44:59;;;;;;;37.90;17.40;;;-3.80;99.90;;;;;;5031438;28;20325;-55
2024/01/20 08:47:27;;;;;;;48.00;18.33;;;-3.80;99.90;;;;;;5034668;28;20237;-54
2024/01/20 08:49:55;;;;;;;43.83;18.48;;;-3.70;99.90;;;;;;5035343;28;20202;-56
2024/01/20 08:52:23;;;;;;;43.05;17.77;;;-3.70;99.90;;;;;;5035040;28;20245;-55
2024/01/20 08:54:51;;;;;;;53.45;19.30;;;-3.70;99.90;;;;;;5035190;28;20652;-54
2024/01/20 08:57:19;;;;;;;48.33;19.27;;;-3.60;99.90;;;;;;5034989;28;20309;-55
2024/01/20 08:59:47;;;;;;;48.00;19.13;;;-3.60;99.90;;;;;;5035436;28;20203;-56
2024/01/20 09:02:16;;;;;;;49.92;19.73;;;-3.60;99.90;;;;;;5034852;28;20317;-54
2024/01/20 09:04:44;;;;;;;44.78;18.55;;;-3.60;99.90;;;;;;5035056;28;20223;-54
2024/01/20 09:07:12;;;;;;;47.92;19.98;;;-3.60;99.90;;;;;;5034886;28;20273;-56
2024/01/20 09:09:39;;;;;;;50.25;20.38;;;-3.50;99.90;;;;;;5034882;28;20755;-55
2024/01/20 09:12:08;;;;;;;44.75;19.63;;;-3.50;99.90;;;;;;5034538;28;20651;-55
2024/01/20 09:14:37;;;;;;;53.28;19.75;;;-3.40;99.90;;;;;;5034731;28;20715;-54
2024/01/20 09:17:05;;;;;;;44.60;19.02;;;-3.50;99.90;;;;;;5034467;28;20711;-54
2024/01/20 09:19:34;;;;;;;41.40;18.50;;;-3.50;99.90;;;;;;5034925;28;20206;-54
2024/01/20 09:22:02;;;;;;;40.45;17.70;;;-3.40;99.90;;;;;;5034594;28;20208;-55
2024/01/20 09:24:30;;;;;;;37.22;17.02;;;-3.40;99.90;;;;;;5034610;28;20290;-56
2024/01/20 09:26:58;;;;;;;43.42;17.35;;;-3.40;99.90;;;;;;5034646;28;20206;-55
2024/01/20 09:29:26;;;;;;;43.50;17.85;;;-3.30;99.90;;;;;;5034633;28;20682;-56
2024/01/20 09:31:54;;;;;;;42.30;17.38;;;-3.30;99.90;;;;;;5034206;28;20246;-56
2024/01/20 09:34:21;;;;;;;37.35;17.42;;;-3.20;99.90;;;;;;5034677;28;20650;-61
2024/01/20 09:36:51;;;;;;;33.83;17.95;;;-3.20;99.90;;;;;;5034258;28;20256;-59
2024/01/20 09:39:20;;;;;;;37.13;17.25;;;-3.10;99.90;;;;;;5034665;28;20288;-55
2024/01/20 09:41:48;;;;;;;34.90;16.55;;;-3.10;99.90;;;;;;5034212;28;20210;-56
2024/01/20 09:44:16;;;;;;;36.47;16.85;;;-3.10;99.90;;;;;;5034296;28;20664;-57
2024/01/20 09:46:44;;;;;;;34.20;15.45;;;-3.00;99.90;;;;;;5034541;28;20240;-58
2024/01/20 09:49:12;;;;;;;33.97;14.63;;;-3.00;99.90;;;;;;5034254;28;20603;-58
2024/01/20 09:51:42;;;;;;;31.92;15.88;;;-3.00;99.90;;;;;;5034142;28;20221;-55
2024/01/20 09:54:12;;;;;;;31.17;15.10;;;-3.10;99.90;;;;;;5033905;28;20699;-55
2024/01/20 09:56:40;;;;;;;33.08;16.52;;;-3.10;99.90;;;;;;5033923;28;20226;-54
2024/01/20 09:59:07;;;;;;;35.03;16.27;;;-3.10;99.90;;;;;;5032904;28;20756;-55
2024/01/20 10:01:36;;;;;;;28.88;14.85;;;-3.10;99.90;;;;;;5033617;28;20293;-55
2024/01/20 10:04:04;;;;;;;34.75;16.63;;;-3.10;99.90;;;;;;5030795;28;20253;-54
2024/01/20 10:06:32;;;;;;;33.65;16.60;;;-3.10;99.90;;;;;;5033361;28;20840;-54
2024/01/20 10:09:00;;;;;;;32.03;15.68;;;-3.10;99.90;;;;;;5029076;28;20220;-55
2024/01/20 10:11:29;;;;;;;34.95;17.00;;;-3.00;99.90;;;;;;5034111;28;20207;-53
2024/01/20 10:13:57;;;;;;;34.80;16.30;;;-3.10;99.90;;;;;;5053191;28;20252;-55
2024/01/20 10:16:25;;;;;;;31.90;16.27;;;-3.00;99.90;;;;;;5037057;28;20226;-55
2024/01/20 10:18:53;;;;;;;29.85;14.95;;;-3.00;99.90;;;;;;5033340;28;20253;-55
2024/01/20 10:21:21;;;;;;;31.55;15.68;;;-3.00;99.90;;;;;;5033397;28;20264;-57
2024/01/20 10:23:49;;;;;;;34.13;16.38;;;-2.90;99.90;;;;;;5032797;28;20264;-54
2024/01/20 10:26:18;;;;;;;32.63;15.63;;;-2.90;99.90;;;;;;5033678;28;20202;-53
2024/01/20 10:28:47;;;;;;;34.83;16.48;;;-2.90;99.90;;;;;;5033043;28;20289;-55
2024/01/20 10:31:15;;;;;;;35.15;16.50;;;-2.90;99.90;;;;;;5032875;28;20290;-56
2024/01/20 10:33:43;;;;;;;41.55;19.88;;;-3.00;99.90;;;;;;5032919;28;20210;-56
2024/01/20 10:36:11;;;;;;;44.63;18.63;;;-3.00;99.90;;;;;;5033186;28;20214;-56
2024/01/20 10:38:39;;;;;;;40.28;17.85;;;-3.00;99.90;;;;;;5032955;28;20207;-57
2024/01/20 10:41:08;;;;;;;37.13;17.73;;;-3.00;99.90;;;;;;5032746;28;20265;-56
2024/01/20 10:43:39;;;;;;;37.83;18.38;;;-3.00;99.90;;;;;;5032757;28;20202;-55
2024/01/20 10:46:12;;;;;;;39.15;17.70;;;-3.00;99.90;;;;;;5033182;28;20231;-55
2024/01/20 10:48:43;;;;;;;37.20;17.67;;;-2.90;99.90;;;;;;5032471;28;20234;-54
2024/01/20 10:51:11;;;;;;;34.65;17.80;;;-2.90;99.90;;;;;;5032599;28;20202;-54
2024/01/20 10:53:39;;;;;;;40.28;18.65;;;-2.90;99.90;;;;;;5032692;28;20214;-54
2024/01/20 10:56:07;;;;;;;35.80;18.02;;;-2.90;99.90;;;;;;5032940;28;20710;-55
2024/01/20 10:58:39;;;;;;;34.58;16.50;;;-2.90;99.90;;;;;;5032406;28;20305;-55
2024/01/20 11:01:07;;;;;;;31.52;16.05;;;-2.90;99.90;;;;;;5031710;28;20584;-55
2024/01/20 11:03:36;;;;;;;32.83;17.13;;;-2.90;99.90;;;;;;5032682;28;20210;-54
2024/01/20 11:06:05;;;;;;;32.63;16.60;;;-2.80;99.90;;;;;;5032838;28;20226;-54
2024/01/20 11:08:33;;;;;;;35.05;17.50;;;-2.80;99.90;;;;;;5032242;28;20695;-55
2024/01/20 11:11:01;;;;;;;29.85;15.68;;;-2.70;99.90;;;;;;5032580;28;20234;-54
2024/01/20 11:13:29;;;;;;;33.75;16.67;;;-2.70;99.90;;;;;;5032649;28;20585;-54
2024/01/20 11:15:57;;;;;;;37.35;16.83;;;-2.60;99.90;;;;;;5032642;28;20270;-55
2024/01/20 11:18:26;;;;;;;35.92;15.75;;;-2.60;99.90;;;;;;5032644;28;20230;-56
2024/01/20 11:20:58;;;;;;;38.60;17.20;;;-2.60;99.90;;;;;;5032531;28;20221;-56
2024/01/20 11:23:26;;;;;;;34.85;17.88;;;-2.60;99.90;;;;;;5032345;28;20297;-55
2024/01/20 11:25:54;;;;;;;36.67;16.80;;;-2.60;99.90;;;;;;5032763;28;20226;-55
2024/01/20 11:28:31;;;;;;;38.88;19.35;;;-2.60;99.90;;;;;;5032268;28;20207;-56
2024/01/20 11:30:59;;;;;;;37.47;17.77;;;-2.50;99.90;;;;;;5032512;28;20230;-56
2024/01/20 11:33:27;;;;;;;36.95;18.15;;;-2.40;99.90;;;;;;5032395;28;20203;-55
2024/01/20 11:35:55;;;;;;;41.33;17.80;;;-2.30;99.90;;;;;;5032122;28;20229;-57
2024/01/20 11:38:25;;;;;;;46.45;21.17;;;-2.30;99.90;;;;;;5031460;28;20231;-57
2024/01/20 11:40:59;;;;;;;45.90;20.38;;;-2.20;99.90;;;;;;5031908;28;20629;-57
2024/01/20 11:43:27;;;;;;;44.33;19.00;;;-2.20;99.90;;;;;;5032256;28;20229;-55
2024/01/20 11:45:56;;;;;;;44.00;19.48;;;-2.20;99.90;;;;;;5032221;28;20269;-55
2024/01/20 11:48:24;;;;;;;43.22;19.38;;;-2.10;99.90;;;;;;5032067;28;20202;-56
2024/01/20 11:50:52;;;;;;;43.55;21.10;;;-2.10;99.90;;;;;;5031682;28;20202;-55
2024/01/20 11:53:20;;;;;;;37.72;19.02;;;-2.00;99.90;;;;;;5031765;28;20676;-56
2024/01/20 11:55:58;;;;;;;38.83;19.52;;;-2.00;99.90;;;;;;5031585;28;20230;-55
2024/01/20 11:58:27;;;;;;;38.97;19.15;;;-2.00;99.90;;;;;;5031937;28;20223;-56
2024/01/20 12:00:55;;;;;;;39.38;17.70;;;-2.00;99.90;;;;;;5031748;28;20205;-55
2024/01/20 12:03:23;;;;;;;33.40;17.35;;;-2.10;99.90;;;;;;5031766;28;20209;-56
2024/01/20 12:05:51;;;;;;;36.42;17.50;;;-2.20;99.90;;;;;;5031563;28;20236;-57
2024/01/20 12:08:20;;;;;;;34.90;18.30;;;-2.10;99.90;;;;;;5031694;28;20200;-56
2024/01/20 12:10:48;;;;;;;38.50;19.02;;;-2.20;99.90;;;;;;5031693;28;20276;-55
2024/01/20 12:13:18;;;;;;;36.47;18.55;;;-2.10;99.90;;;;;;5027389;28;20214;-55
2024/01/20 12:15:47;;;;;;;39.65;17.77;;;-2.10;99.90;;;;;;5039927;28;20245;-56
2024/01/20 12:18:16;;;;;;;36.70;18.33;;;-2.00;99.90;;;;;;5034688;28;20626;-56
2024/01/20 12:20:45;;;;;;;43.25;19.05;;;-2.00;99.90;;;;;;5049218;28;20206;-55
2024/01/20 12:23:19;;;;;;;41.90;19.05;;;-1.90;99.90;;;;;;5037523;28;20207;-57
2024/01/20 12:25:47;;;;;;;39.97;19.17;;;-1.90;99.90;;;;;;5029192;28;20261;-55
2024/01/20 12:28:18;;;;;;;44.72;19.85;;;-1.90;99.90;;;;;;5031130;28;20202;-57
2024/01/20 12:30:46;;;;;;;38.40;18.15;;;-1.90;99.90;;;;;;5030134;28;20211;-56
2024/01/20 12:33:14;;;;;;;39.35;19.05;;;-1.90;99.90;;;;;;5031345;28;20202;-56